This is the latest recevied weather packets stored in our database for station/object HS6TUX-4. If no packets are shown the sender has not sent any weather packets the latest 1 day(s).
| Time | Temp. | Humidity | Pressure | Rain* | Wind** | Luminosity | Snow |
|---|---|---|---|---|---|---|---|
| 1778103060 | 29.44° C | 99% | 726 hPa | - | - | 0 W/m² | - |
| 1778098419 | 28.89° C | 99% | 726 hPa | - | - | 0 W/m² | - |
| 1778096562 | 28.89° C | 99% | 726 hPa | - | - | 0 W/m² | - |
| 1778094705 | 28.89° C | 99% | 726 hPa | - | - | 0 W/m² | - |
| 1778090992 | 29.44° C | 99% | 727 hPa | - | - | 0 W/m² | - |
| 1778090063 | 29.44° C | 99% | 727 hPa | - | - | 0 W/m² | - |
| 1778086350 | 30° C | 99% | 727 hPa | - | - | 0 W/m² | - |
| 1778080780 | 31.11° C | 99% | 728 hPa | - | - | 0 W/m² | - |
| 1778077995 | 32.78° C | 99% | 730 hPa | - | - | 0 W/m² | - |
| 1778077067 | 32.22° C | 99% | 729 hPa | - | - | 0 W/m² | - |
| 1778073354 | 33.33° C | 99% | 731 hPa | - | - | 0 W/m² | - |
| 1778068712 | 34.44° C | 99% | 732 hPa | - | - | 0 W/m² | - |
| 1778065926 | 36.11° C | 95% | 734 hPa | - | - | 3 W/m² | - |
| 1778064998 | 36.67° C | 93% | 735 hPa | - | - | 6 W/m² | - |
| 1778063142 | 38.33° C | 92% | 736 hPa | - | - | 10 W/m² | - |
| 1778060357 | 38.89° C | 92% | 737 hPa | - | - | 14 W/m² | - |
| 1778056644 | 40° C | 88% | 739 hPa | - | - | 21 W/m² | - |
| 1778054788 | 40.56° C | 87% | 739 hPa | - | - | 27 W/m² | - |
| 1778053860 | 41.11° C | 86% | 740 hPa | - | - | 30 W/m² | - |
| 1778049219 | 42.78° C | 83% | 742 hPa | - | - | 40 W/m² | - |
| 1778048291 | 41.67° C | 88% | 741 hPa | - | - | 48 W/m² | - |
| 1778045506 | 43.33° C | 86% | 743 hPa | - | - | 65 W/m² | - |
| 1778044578 | 40.56° C | 92% | 740 hPa | - | - | 55 W/m² | - |
| 1778043650 | 41.11° C | 95% | 740 hPa | - | - | 80 W/m² | - |
| 1778041793 | 41.67° C | 95% | 741 hPa | - | - | 102 W/m² | - |
* Rain since midnight (hover to see other rain measurements)
** Current wind speed in m/s (hover to see current wind gust speed)